Time;durP1;ratioP1;P1;durP2;ratioP2;P2;SDS_P1;SDS_P2;PMS_P1;PMS_P2;Temp;Humidity;BMP_temperature;BMP_pressure;BME280_temperature;BME280_humidity;BME280_pressure;Samples;Min_cycle;Max_cycle;Signal;HPM_P1;HPM_P2
2021/09/11 00:01:09;;;;;;;15.15;10.60;;;19.40;90.80;;;;;;5009795;28;20505;-83
2021/09/11 00:03:36;;;;;;;13.52;9.63;;;19.40;91.10;;;;;;4992914;28;20220;-82
2021/09/11 00:06:04;;;;;;;14.40;10.10;;;19.40;90.90;;;;;;5009307;28;20178;-80
2021/09/11 00:08:31;;;;;;;14.85;10.45;;;19.40;90.90;;;;;;5043037;28;20149;-85
2021/09/11 00:11:02;;;;;;;13.77;9.77;;;19.40;91.00;;;;;;5009139;28;20181;-82
2021/09/11 00:13:28;;;;;;;13.98;10.05;;;19.30;90.70;;;;;;5025652;28;20185;-82
2021/09/11 00:15:54;;;;;;;14.15;9.68;;;19.40;91.10;;;;;;5059896;28;20176;-83
2021/09/11 00:18:20;;;;;;;14.40;9.55;;;19.40;90.90;;;;;;5059599;28;20142;-83
2021/09/11 00:20:50;;;;;;;14.40;9.68;;;19.40;91.10;;;;;;5042484;28;20647;-82
2021/09/11 00:23:16;;;;;;;14.13;10.07;;;19.40;91.00;;;;;;5008918;28;20703;-85
2021/09/11 00:25:45;;;;;;;14.63;10.13;;;19.40;91.20;;;;;;5042470;28;20169;-82
2021/09/11 00:28:11;;;;;;;13.18;8.98;;;19.40;91.00;;;;;;5077169;28;20606;-83
2021/09/11 00:30:37;;;;;;;14.27;10.05;;;19.40;90.90;;;;;;5059097;28;20288;-84
2021/09/11 00:33:03;;;;;;;13.18;9.45;;;19.40;91.10;;;;;;5042456;28;20176;-82
2021/09/11 00:35:29;;;;;;;14.88;10.13;;;19.40;91.30;;;;;;5058997;28;20170;-87
2021/09/11 00:37:55;;;;;;;12.70;9.57;;;19.40;91.00;;;;;;5042050;28;20154;-83
2021/09/11 00:40:27;;;;;;;15.13;10.25;;;19.40;91.00;;;;;;5042003;28;20217;-82
2021/09/11 00:42:57;;;;;;;13.45;9.50;;;19.40;90.90;;;;;;5042073;28;20189;-84
2021/09/11 00:45:23;;;;;;;11.70;9.40;;;19.40;90.90;;;;;;5058552;28;20162;-82
2021/09/11 00:47:50;;;;;;;12.45;9.40;;;19.40;91.00;;;;;;5058708;28;20587;-83
2021/09/11 00:50:16;;;;;;;14.75;10.13;;;19.40;91.00;;;;;;5058763;28;20145;-82
2021/09/11 00:52:43;;;;;;;15.90;10.05;;;19.40;90.90;;;;;;5076217;28;20991;-85
2021/09/11 00:55:09;;;;;;;13.57;9.50;;;19.40;91.10;;;;;;5042004;28;20169;-82
2021/09/11 00:57:39;;;;;;;13.30;9.60;;;19.40;91.10;;;;;;5042519;28;20502;-82
2021/09/11 01:00:06;;;;;;;13.98;9.90;;;19.40;91.00;;;;;;5041947;28;20690;-87
2021/09/11 01:02:32;;;;;;;13.85;9.68;;;19.40;91.10;;;;;;5041614;28;20181;-85
2021/09/11 01:05:04;;;;;;;13.48;9.23;;;19.40;91.10;;;;;;5041643;28;20581;-80
2021/09/11 01:07:34;;;;;;;14.05;9.85;;;19.30;91.10;;;;;;5008952;28;20173;-83
2021/09/11 01:10:00;;;;;;;13.68;9.73;;;19.40;91.20;;;;;;5008119;28;20177;-84
2021/09/11 01:12:30;;;;;;;13.95;10.23;;;19.40;90.90;;;;;;5057899;28;20647;-85
2021/09/11 01:15:01;;;;;;;14.00;9.57;;;19.40;91.00;;;;;;5008175;28;20189;-83
2021/09/11 01:17:28;;;;;;;13.82;9.48;;;19.40;91.10;;;;;;5058328;28;20731;-81
2021/09/11 01:19:55;;;;;;;13.93;9.82;;;19.40;91.10;;;;;;5040392;28;20190;-83
2021/09/11 01:22:22;;;;;;;14.63;10.50;;;19.40;91.20;;;;;;5007791;28;20209;-82
2021/09/11 01:24:55;;;;;;;13.73;9.50;;;19.40;91.10;;;;;;5008653;28;20339;-83
2021/09/11 01:27:25;;;;;;;16.13;10.50;;;19.30;90.80;;;;;;5007669;28;20648;-85
2021/09/11 01:29:52;;;;;;;13.35;10.07;;;19.40;91.20;;;;;;5024132;28;20197;-83
2021/09/11 01:32:18;;;;;;;12.95;9.25;;;19.40;91.20;;;;;;5041228;28;20170;-81
2021/09/11 01:34:44;;;;;;;14.38;10.13;;;19.40;91.10;;;;;;5075849;28;20247;-81
2021/09/11 01:37:14;;;;;;;14.25;9.45;;;19.40;91.20;;;;;;5057637;28;20157;-82
2021/09/11 01:39:41;;;;;;;13.48;9.50;;;19.30;91.10;;;;;;5058007;28;20157;-81
2021/09/11 01:42:10;;;;;;;13.93;10.10;;;19.40;91.40;;;;;;5075116;28;20184;-84
2021/09/11 01:44:45;;;;;;;14.98;10.20;;;19.40;91.10;;;;;;5007799;28;20193;-83
2021/09/11 01:47:10;;;;;;;14.00;9.77;;;19.40;91.10;;;;;;5057396;28;20153;-84
2021/09/11 01:49:41;;;;;;;14.10;9.65;;;19.40;91.20;;;;;;5075361;28;20161;-81
2021/09/11 01:52:09;;;;;;;12.27;9.38;;;19.40;91.20;;;;;;5024507;28;20205;-85
2021/09/11 01:54:37;;;;;;;14.02;10.10;;;19.40;91.30;;;;;;5023139;28;20229;-85
2021/09/11 01:57:04;;;;;;;12.98;9.52;;;19.40;91.30;;;;;;5024107;28;20185;-85
2021/09/11 01:59:34;;;;;;;13.75;9.98;;;19.40;91.30;;;;;;5041428;28;20226;-82
2021/09/11 02:02:02;;;;;;;13.35;9.73;;;19.40;91.20;;;;;;5040782;28;20193;-84
2021/09/11 02:04:27;;;;;;;13.55;9.65;;;19.30;91.20;;;;;;5007136;28;20546;-80
2021/09/11 02:06:57;;;;;;;13.57;10.15;;;19.40;91.30;;;;;;5024258;28;20176;-82
2021/09/11 02:09:25;;;;;;;13.45;9.68;;;19.30;91.20;;;;;;5007423;28;20190;-84
2021/09/11 02:11:52;;;;;;;13.02;9.55;;;19.40;91.20;;;;;;5040608;28;20165;-84
2021/09/11 02:14:18;;;;;;;13.05;9.57;;;19.40;91.30;;;;;;5024555;28;20223;-83
2021/09/11 02:16:44;;;;;;;12.80;9.45;;;19.40;91.20;;;;;;5057349;28;20162;-82
2021/09/11 02:19:14;;;;;;;12.85;9.35;;;19.40;91.10;;;;;;5057348;28;20529;-85
2021/09/11 02:21:40;;;;;;;14.77;9.77;;;19.40;91.30;;;;;;5007164;28;20633;-82
2021/09/11 02:24:11;;;;;;;13.90;9.77;;;19.40;91.30;;;;;;5040903;28;20169;-82
2021/09/11 02:26:37;;;;;;;12.82;10.02;;;19.40;91.40;;;;;;4990773;28;20663;-82
2021/09/11 02:29:04;;;;;;;13.30;9.93;;;19.40;91.30;;;;;;5024058;28;20195;-82
2021/09/11 02:31:30;;;;;;;14.02;10.23;;;19.40;91.40;;;;;;5023897;28;20169;-82
2021/09/11 02:33:58;;;;;;;14.50;10.38;;;19.40;91.20;;;;;;5056827;28;20169;-84
2021/09/11 02:36:24;;;;;;;14.50;9.75;;;19.40;91.40;;;;;;5039908;28;20161;-81
2021/09/11 02:38:52;;;;;;;15.00;10.63;;;19.40;91.40;;;;;;5023804;28;20169;-83
2021/09/11 02:41:19;;;;;;;14.32;10.15;;;19.30;91.40;;;;;;5040111;28;20165;-82
2021/09/11 02:43:48;;;;;;;12.95;9.77;;;19.30;91.40;;;;;;5056558;28;20242;-84
2021/09/11 02:46:15;;;;;;;15.52;10.15;;;19.40;91.30;;;;;;5006449;28;20326;-83
2021/09/11 02:48:41;;;;;;;13.35;9.50;;;19.40;91.40;;;;;;5074431;28;20165;-85
2021/09/11 02:51:10;;;;;;;15.30;10.50;;;19.40;91.40;;;;;;5074549;28;20150;-84
2021/09/11 02:53:38;;;;;;;13.95;9.73;;;19.40;91.30;;;;;;5022528;28;20241;-81
2021/09/11 02:56:03;;;;;;;15.05;10.32;;;19.40;91.30;;;;;;5022618;28;20223;-83
2021/09/11 02:58:33;;;;;;;14.75;10.50;;;19.40;91.40;;;;;;5056387;28;20561;-82
2021/09/11 03:01:03;;;;;;;13.45;9.65;;;19.30;91.20;;;;;;5022792;28;20188;-82
2021/09/11 03:03:33;;;;;;;13.88;9.98;;;19.40;91.40;;;;;;5006495;28;20240;-82
2021/09/11 03:06:05;;;;;;;13.82;9.60;;;19.40;91.40;;;;;;5006707;28;20185;-82
2021/09/11 03:08:37;;;;;;;13.75;9.88;;;19.40;91.50;;;;;;5010077;28;20625;-84
2021/09/11 03:11:07;;;;;;;14.43;9.57;;;19.30;91.30;;;;;;5026707;28;20177;-84
2021/09/11 03:13:32;;;;;;;13.25;9.80;;;19.40;91.40;;;;;;5010556;28;20211;-84
2021/09/11 03:15:59;;;;;;;12.38;9.02;;;19.40;91.30;;;;;;5060743;28;20617;-82
2021/09/11 03:18:25;;;;;;;13.02;9.50;;;19.40;91.30;;;;;;5044314;28;20232;-82
2021/09/11 03:20:51;;;;;;;14.13;9.65;;;19.40;91.30;;;;;;5078302;28;20627;-81
2021/09/11 03:23:17;;;;;;;12.85;9.63;;;19.40;91.20;;;;;;5043849;28;20253;-84
2021/09/11 03:25:44;;;;;;;13.98;9.90;;;19.40;91.30;;;;;;5060669;28;20235;-83
2021/09/11 03:28:12;;;;;;;14.27;9.80;;;19.40;91.40;;;;;;5044212;28;20256;-81
2021/09/11 03:30:38;;;;;;;13.65;10.00;;;19.40;91.40;;;;;;5010793;28;20541;-84
2021/09/11 03:33:06;;;;;;;15.15;10.15;;;19.40;91.40;;;;;;5060442;28;20165;-84
2021/09/11 03:35:34;;;;;;;13.63;9.60;;;19.40;91.30;;;;;;5043851;28;20265;-83
2021/09/11 03:38:04;;;;;;;14.00;9.68;;;19.40;91.50;;;;;;5010003;28;20239;-81
2021/09/11 03:40:30;;;;;;;15.25;10.13;;;19.40;91.30;;;;;;5026811;28;20546;-83
2021/09/11 03:42:59;;;;;;;13.65;9.30;;;19.40;91.40;;;;;;5060236;28;20177;-83
2021/09/11 03:45:24;;;;;;;12.68;9.40;;;19.40;91.40;;;;;;5026768;28;20189;-83
2021/09/11 03:47:50;;;;;;;14.48;9.98;;;19.40;91.50;;;;;;5044883;28;20173;-81
2021/09/11 03:50:17;;;;;;;12.60;9.38;;;19.40;91.50;;;;;;5028262;28;20161;-82
2021/09/11 03:52:43;;;;;;;13.95;9.90;;;19.40;91.60;;;;;;5027390;28;20181;-82
2021/09/11 03:55:09;;;;;;;14.13;9.70;;;19.30;91.40;;;;;;5044372;28;20166;-84
2021/09/11 03:57:41;;;;;;;12.70;9.27;;;19.40;91.50;;;;;;5061786;28;20177;-81
2021/09/11 04:00:10;;;;;;;14.88;9.43;;;19.40;91.10;;;;;;5028173;28;20212;-83
2021/09/11 04:02:38;;;;;;;15.88;10.15;;;19.40;91.50;;;;;;5044480;28;20272;-84
2021/09/11 04:05:05;;;;;;;12.43;9.02;;;19.40;91.60;;;;;;5027506;28;20176;-80
2021/09/11 04:07:34;;;;;;;13.70;9.68;;;19.30;91.60;;;;;;5045081;28;20173;-82
2021/09/11 04:10:00;;;;;;;14.30;9.90;;;19.40;91.60;;;;;;5027885;28;20190;-84
2021/09/11 04:12:26;;;;;;;14.25;9.80;;;19.40;91.50;;;;;;5079202;28;20164;-85
2021/09/11 04:14:51;;;;;;;13.60;10.30;;;19.40;91.50;;;;;;5061108;28;20165;-83
2021/09/11 04:17:17;;;;;;;13.70;9.40;;;19.30;91.60;;;;;;5044879;28;20195;-82
2021/09/11 04:19:47;;;;;;;13.05;9.30;;;19.30;91.60;;;;;;5061194;28;20176;-85
2021/09/11 04:22:14;;;;;;;12.80;9.20;;;19.40;91.60;;;;;;4993908;28;20205;-83
2021/09/11 04:24:41;;;;;;;14.40;10.02;;;19.40;92.00;;;;;;4994356;28;20177;-81
2021/09/11 04:27:06;;;;;;;15.70;9.90;;;19.30;92.00;;;;;;5031942;28;20204;-81
2021/09/11 04:29:33;;;;;;;13.75;9.75;;;19.40;91.70;;;;;;5048231;28;20698;-81
2021/09/11 04:31:59;;;;;;;12.88;9.20;;;19.40;91.50;;;;;;5065459;28;20165;-79
2021/09/11 04:34:28;;;;;;;14.38;10.07;;;19.40;91.50;;;;;;5048873;28;20223;-81
2021/09/11 04:36:58;;;;;;;13.50;10.02;;;19.40;91.20;;;;;;5031841;28;20185;-81
2021/09/11 04:39:26;;;;;;;13.85;9.52;;;19.40;91.40;;;;;;4998830;28;20216;-84
2021/09/11 04:42:00;;;;;;;13.77;9.60;;;19.40;91.50;;;;;;5082851;28;20165;-80
2021/09/11 04:44:28;;;;;;;14.98;10.43;;;19.40;91.50;;;;;;5031201;28;20602;-80
2021/09/11 04:46:58;;;;;;;14.15;10.20;;;19.40;91.60;;;;;;5030396;28;20181;-81
2021/09/11 04:49:29;;;;;;;12.95;9.20;;;19.40;91.60;;;;;;5015386;28;20184;-80
2021/09/11 04:51:55;;;;;;;14.40;10.15;;;19.40;91.80;;;;;;5014459;28;20193;-81
2021/09/11 04:54:23;;;;;;;13.45;9.63;;;19.30;91.70;;;;;;5048299;28;20228;-82
2021/09/11 04:56:49;;;;;;;13.73;9.93;;;19.40;91.70;;;;;;5031202;28;20174;-82
2021/09/11 04:59:14;;;;;;;13.75;9.18;;;19.40;91.50;;;;;;5048352;28;20170;-82
2021/09/11 05:01:45;;;;;;;14.52;9.68;;;19.30;91.60;;;;;;5047184;28;20215;-81
2021/09/11 05:04:15;;;;;;;13.43;9.60;;;19.40;91.50;;;;;;5064527;28;20169;-80
2021/09/11 05:06:41;;;;;;;15.18;10.45;;;19.40;91.60;;;;;;5031611;28;20267;-80
2021/09/11 05:09:07;;;;;;;14.30;9.63;;;19.40;91.60;;;;;;5014278;28;20243;-81
2021/09/11 05:11:37;;;;;;;13.70;9.73;;;19.40;91.40;;;;;;5048391;28;20161;-81
2021/09/11 05:14:04;;;;;;;13.55;9.60;;;19.40;91.40;;;;;;5014234;28;20656;-82
2021/09/11 05:16:30;;;;;;;14.02;9.45;;;19.40;91.70;;;;;;5030382;28;20189;-82
2021/09/11 05:18:56;;;;;;;13.45;9.60;;;19.40;91.40;;;;;;5047871;28;20165;-80
2021/09/11 05:21:22;;;;;;;13.60;9.68;;;19.30;91.60;;;;;;5064697;28;20173;-82
2021/09/11 05:23:52;;;;;;;13.65;9.48;;;19.40;91.60;;;;;;5048171;28;20624;-80
2021/09/11 05:26:17;;;;;;;13.60;9.48;;;19.40;91.50;;;;;;5046853;28;20251;-81
2021/09/11 05:28:43;;;;;;;13.20;9.70;;;19.40;91.60;;;;;;5048343;28;20165;-80
2021/09/11 05:31:14;;;;;;;12.50;8.75;;;19.40;91.60;;;;;;5047367;28;20164;-82
2021/09/11 05:33:39;;;;;;;13.48;9.75;;;19.40;91.50;;;;;;5013977;28;20181;-82
2021/09/11 05:36:06;;;;;;;14.20;10.00;;;19.40;91.60;;;;;;5064381;28;20172;-82
2021/09/11 05:38:33;;;;;;;12.45;9.18;;;19.40;91.40;;;;;;5063742;28;20170;-80
2021/09/11 05:41:00;;;;;;;13.73;9.30;;;19.40;91.60;;;;;;5047673;28;20169;-80
2021/09/11 05:43:25;;;;;;;12.80;9.65;;;19.40;91.60;;;;;;5030982;28;20262;-80
2021/09/11 05:45:51;;;;;;;13.32;9.32;;;19.40;91.10;;;;;;5064221;28;20165;-81
2021/09/11 05:48:18;;;;;;;14.18;9.82;;;19.40;91.60;;;;;;5047759;28;20164;-81
2021/09/11 05:50:44;;;;;;;13.32;9.32;;;19.40;91.40;;;;;;5047901;28;20226;-80
2021/09/11 05:53:09;;;;;;;12.07;8.93;;;19.40;91.60;;;;;;5030142;28;20249;-83
2021/09/11 05:55:35;;;;;;;13.20;9.55;;;19.40;91.40;;;;;;5063322;28;20165;-80
2021/09/11 05:58:03;;;;;;;13.73;9.65;;;19.40;91.50;;;;;;5047885;28;20150;-83
2021/09/11 06:00:30;;;;;;;12.43;8.88;;;19.40;91.60;;;;;;4996949;28;20648;-81
2021/09/11 06:03:00;;;;;;;15.20;10.60;;;19.30;91.40;;;;;;4997856;28;20556;-80
2021/09/11 06:05:29;;;;;;;13.93;9.30;;;19.40;91.50;;;;;;5049610;28;20239;-82
2021/09/11 06:07:54;;;;;;;14.63;9.82;;;19.30;91.60;;;;;;5039019;28;20724;-80
2021/09/11 06:10:20;;;;;;;13.82;10.02;;;19.40;91.60;;;;;;5023177;28;20257;-80
2021/09/11 06:12:47;;;;;;;13.88;10.00;;;19.40;91.60;;;;;;5039949;28;20173;-80
2021/09/11 06:15:12;;;;;;;13.20;9.15;;;19.40;91.70;;;;;;5007146;28;20308;-80
2021/09/11 06:17:44;;;;;;;13.65;9.68;;;19.40;91.70;;;;;;5023593;28;20182;-82
2021/09/11 06:20:13;;;;;;;14.10;9.82;;;19.40;91.80;;;;;;5038972;28;20217;-80
2021/09/11 06:22:39;;;;;;;13.23;9.57;;;19.40;91.70;;;;;;5023155;28;20189;-83
2021/09/11 06:25:10;;;;;;;15.10;9.82;;;19.30;91.60;;;;;;5039080;28;20158;-83
2021/09/11 06:27:36;;;;;;;12.98;9.57;;;19.30;91.50;;;;;;5022515;28;20162;-79
2021/09/11 06:30:07;;;;;;;14.75;9.98;;;19.40;91.80;;;;;;5039108;28;20284;-80
2021/09/11 06:32:33;;;;;;;13.93;10.13;;;19.30;91.40;;;;;;5038872;28;20185;-82
2021/09/11 06:34:59;;;;;;;13.70;9.90;;;19.40;91.70;;;;;;5038916;28;20625;-80
2021/09/11 06:37:25;;;;;;;13.52;9.55;;;19.40;91.80;;;;;;5022683;28;20245;-81
2021/09/11 06:39:51;;;;;;;13.23;9.13;;;19.40;91.60;;;;;;5038557;28;20166;-83
2021/09/11 06:42:21;;;;;;;13.23;9.40;;;19.40;91.70;;;;;;5056815;28;20235;-81
2021/09/11 06:44:51;;;;;;;14.43;9.93;;;19.40;91.80;;;;;;5021839;28;20824;-80
2021/09/11 06:47:16;;;;;;;12.85;9.30;;;19.40;91.70;;;;;;5021458;28;20213;-80
2021/09/11 06:49:46;;;;;;;12.63;9.05;;;19.40;91.70;;;;;;5039038;28;20150;-81
2021/09/11 06:52:12;;;;;;;12.93;9.68;;;19.40;91.70;;;;;;5021745;28;20551;-82
2021/09/11 06:54:38;;;;;;;13.70;9.75;;;19.40;91.60;;;;;;5039124;28;20688;-79
2021/09/11 06:57:04;;;;;;;15.27;9.63;;;19.40;91.70;;;;;;5022054;28;20205;-82
2021/09/11 06:59:30;;;;;;;14.07;9.80;;;19.40;91.80;;;;;;5038386;28;20519;-80
2021/09/11 07:02:00;;;;;;;13.27;9.38;;;19.40;91.70;;;;;;5030489;28;20311;-80
2021/09/11 07:04:26;;;;;;;14.57;9.88;;;19.40;91.50;;;;;;4972621;28;20182;-81
2021/09/11 07:06:51;;;;;;;13.80;9.52;;;19.40;91.50;;;;;;5022677;28;20166;-84
2021/09/11 07:09:17;;;;;;;14.95;10.32;;;19.40;91.70;;;;;;5022306;28;20166;-81
2021/09/11 07:11:43;;;;;;;15.57;10.45;;;19.40;91.70;;;;;;5038981;28;20194;-79
2021/09/11 07:14:09;;;;;;;12.65;9.25;;;19.40;91.70;;;;;;5022621;28;20170;-81
2021/09/11 07:16:35;;;;;;;12.48;9.02;;;19.40;92.10;;;;;;5038253;28;20253;-80
2021/09/11 07:19:05;;;;;;;13.18;9.30;;;19.40;91.80;;;;;;5005767;28;20197;-84
2021/09/11 07:21:31;;;;;;;12.68;9.63;;;19.30;91.30;;;;;;5005344;28;20174;-82
2021/09/11 07:23:57;;;;;;;13.23;8.95;;;19.40;91.90;;;;;;5038075;28;20197;-80
2021/09/11 07:26:24;;;;;;;13.48;9.70;;;19.40;92.00;;;;;;5038780;28;20154;-81
2021/09/11 07:28:50;;;;;;;13.23;9.30;;;19.40;91.70;;;;;;5056523;28;20146;-84
2021/09/11 07:31:18;;;;;;;13.55;9.32;;;19.40;91.50;;;;;;5038959;28;20157;-79
2021/09/11 07:33:44;;;;;;;14.85;9.45;;;19.40;91.50;;;;;;5022504;28;20162;-80
2021/09/11 07:36:10;;;;;;;14.75;9.50;;;19.40;91.40;;;;;;5022164;28;20170;-80
2021/09/11 07:38:36;;;;;;;13.10;9.35;;;19.40;91.50;;;;;;5038823;28;20622;-80
2021/09/11 07:41:04;;;;;;;13.25;9.48;;;19.40;91.40;;;;;;5057234;28;20159;-84
2021/09/11 07:43:32;;;;;;;13.90;9.68;;;19.40;91.70;;;;;;5022308;28;20204;-79
2021/09/11 07:45:57;;;;;;;14.38;9.75;;;19.40;91.60;;;;;;5040030;28;20189;-82
2021/09/11 07:48:24;;;;;;;13.57;9.75;;;19.40;91.70;;;;;;5075624;28;20624;-82
2021/09/11 07:50:50;;;;;;;13.35;9.75;;;19.40;91.50;;;;;;5042152;28;20551;-82
2021/09/11 07:53:16;;;;;;;13.60;9.60;;;19.40;91.70;;;;;;5052570;28;20300;-83
2021/09/11 07:55:44;;;;;;;13.82;9.77;;;19.40;91.60;;;;;;5059321;28;20172;-80
2021/09/11 07:58:10;;;;;;;14.45;9.57;;;19.40;91.80;;;;;;5042420;28;20259;-82
2021/09/11 08:00:36;;;;;;;13.73;9.43;;;19.40;91.70;;;;;;5063923;28;20153;-79
2021/09/11 08:03:01;;;;;;;14.30;9.73;;;19.40;91.70;;;;;;5062288;28;20193;-80
2021/09/11 08:05:28;;;;;;;13.43;9.88;;;19.40;91.50;;;;;;5061871;28;20169;-80
2021/09/11 08:07:54;;;;;;;13.18;9.05;;;19.40;91.60;;;;;;5062999;28;20172;-82
2021/09/11 08:10:20;;;;;;;13.40;9.30;;;19.40;91.80;;;;;;5080829;28;20181;-84
2021/09/11 08:12:48;;;;;;;14.68;9.98;;;19.40;91.30;;;;;;5045588;28;20177;-84
2021/09/11 08:15:18;;;;;;;14.88;10.10;;;19.40;91.30;;;;;;5044628;28;20263;-80
2021/09/11 08:17:45;;;;;;;12.35;9.18;;;19.50;91.60;;;;;;5062118;28;20185;-82
2021/09/11 08:20:11;;;;;;;13.02;9.25;;;19.40;91.40;;;;;;5063857;28;20162;-78
2021/09/11 08:22:40;;;;;;;12.95;9.00;;;19.40;91.50;;;;;;5061969;28;20203;-80
2021/09/11 08:25:07;;;;;;;14.02;9.43;;;19.40;91.50;;;;;;5045313;28;20231;-79
2021/09/11 08:27:35;;;;;;;12.73;9.32;;;19.40;91.90;;;;;;5062528;28;20157;-80
2021/09/11 08:30:01;;;;;;;12.45;9.18;;;19.40;91.60;;;;;;5044955;28;20204;-81
2021/09/11 08:32:28;;;;;;;13.95;9.55;;;19.50;91.50;;;;;;5061951;28;20612;-83
2021/09/11 08:34:54;;;;;;;13.73;9.50;;;19.40;91.40;;;;;;5044697;28;20165;-80
2021/09/11 08:37:22;;;;;;;12.95;9.55;;;19.40;91.50;;;;;;5061209;28;20169;-80
2021/09/11 08:39:48;;;;;;;12.82;9.27;;;19.40;91.40;;;;;;5062015;28;20157;-82
2021/09/11 08:42:13;;;;;;;14.15;10.00;;;19.40;91.80;;;;;;5061525;28;20200;-78
2021/09/11 08:44:40;;;;;;;15.38;10.27;;;19.40;91.50;;;;;;5061341;28;20146;-81
2021/09/11 08:47:09;;;;;;;14.00;9.68;;;19.40;91.50;;;;;;5045444;28;20165;-80
2021/09/11 08:49:39;;;;;;;12.60;9.35;;;19.40;91.40;;;;;;5044150;28;20609;-82
2021/09/11 08:52:13;;;;;;;12.75;8.98;;;19.40;91.60;;;;;;5059879;28;20189;-79
2021/09/11 08:54:38;;;;;;;14.32;9.68;;;19.40;91.60;;;;;;5043397;28;20248;-84
2021/09/11 08:57:24;;;;;;;13.40;9.10;;;19.40;91.50;;;;;;5061144;28;20617;-84
2021/09/11 08:59:52;;;;;;;12.60;9.10;;;19.40;91.50;;;;;;5061498;28;20180;-80
2021/09/11 09:02:21;;;;;;;11.80;9.07;;;19.40;91.40;;;;;;5061079;28;20666;-84
2021/09/11 09:04:58;;;;;;;13.90;9.88;;;19.40;91.50;;;;;;5060801;28;20146;-83
2021/09/11 09:07:39;;;;;;;13.57;9.48;;;19.40;91.40;;;;;;5061231;28;20232;-80
2021/09/11 09:10:13;;;;;;;14.43;9.48;;;19.50;91.50;;;;;;5044617;28;20214;-81
2021/09/11 09:12:40;;;;;;;14.75;9.65;;;19.40;91.40;;;;;;5044757;28;20193;-81
2021/09/11 09:15:09;;;;;;;15.20;9.65;;;19.50;91.40;;;;;;5061378;28;20158;-81
2021/09/11 09:17:52;;;;;;;15.10;11.02;;;19.40;91.60;;;;;;5044234;28;20165;-79
2021/09/11 09:20:24;;;;;;;12.70;9.70;;;19.40;91.30;;;;;;5061389;28;20181;-80
2021/09/11 09:23:12;;;;;;;12.88;9.45;;;19.40;91.40;;;;;;5027072;28;20205;-80
2021/09/11 09:25:38;;;;;;;14.07;9.98;;;19.50;91.50;;;;;;5060418;28;20173;-80
2021/09/11 09:28:08;;;;;;;13.55;9.77;;;19.40;91.60;;;;;;5043563;28;20170;-79
2021/09/11 09:30:45;;;;;;;13.68;9.50;;;19.40;91.70;;;;;;5046648;28;20172;-80
2021/09/11 09:33:28;;;;;;;12.82;9.18;;;19.40;91.70;;;;;;5063259;28;20153;-80
2021/09/11 09:35:58;;;;;;;13.32;9.23;;;19.50;91.80;;;;;;5046751;28;20695;-81
2021/09/11 09:38:28;;;;;;;14.35;9.68;;;19.50;91.60;;;;;;5080496;28;20161;-79
2021/09/11 09:40:54;;;;;;;14.68;10.15;;;19.40;91.60;;;;;;5044320;28;20181;-83
2021/09/11 09:43:40;;;;;;;13.77;9.52;;;19.40;91.40;;;;;;5061729;28;20181;-80
2021/09/11 09:46:13;;;;;;;13.25;9.18;;;19.50;91.40;;;;;;5045908;28;20161;-80
2021/09/11 09:48:40;;;;;;;13.02;9.15;;;19.50;90.90;;;;;;5061612;28;20156;-82
2021/09/11 09:51:09;;;;;;;14.25;9.73;;;19.60;91.30;;;;;;5061590;28;20187;-80
2021/09/11 09:53:35;;;;;;;14.00;9.50;;;19.60;91.20;;;;;;5079428;28;20205;-81
2021/09/11 09:56:01;;;;;;;12.93;9.43;;;19.50;91.20;;;;;;5062143;28;20161;-82
2021/09/11 09:58:31;;;;;;;12.07;9.10;;;19.50;91.10;;;;;;5045065;28;20537;-79
2021/09/11 10:00:57;;;;;;;13.15;9.50;;;19.40;91.00;;;;;;5045259;28;20204;-78
2021/09/11 10:03:23;;;;;;;13.57;8.85;;;19.50;91.10;;;;;;5061878;28;20177;-81
2021/09/11 10:05:51;;;;;;;13.95;9.85;;;19.50;91.00;;;;;;5078583;28;20157;-82
2021/09/11 10:08:17;;;;;;;14.02;9.70;;;19.50;91.00;;;;;;5059672;28;20255;-83
2021/09/11 10:10:47;;;;;;;13.65;9.52;;;19.50;91.00;;;;;;5059126;28;20515;-80
2021/09/11 10:13:22;;;;;;;14.75;9.57;;;19.50;91.20;;;;;;5042390;28;20181;-80
2021/09/11 10:15:56;;;;;;;12.18;9.43;;;19.60;91.10;;;;;;5030064;28;20253;-81
2021/09/11 10:18:40;;;;;;;13.85;9.60;;;19.50;91.00;;;;;;5014967;28;20633;-80
2021/09/11 10:21:15;;;;;;;14.27;10.10;;;19.50;91.10;;;;;;5015126;28;20278;-80
2021/09/11 10:24:05;;;;;;;14.15;10.00;;;19.50;91.10;;;;;;5015061;28;20203;-80
2021/09/11 10:26:53;;;;;;;13.77;9.23;;;19.50;90.90;;;;;;4998933;28;20175;-79
2021/09/11 10:29:44;;;;;;;14.13;9.57;;;19.60;91.00;;;;;;5010479;28;20190;-80
2021/09/11 10:32:17;;;;;;;14.20;9.68;;;19.50;90.90;;;;;;4979376;28;20581;-83
2021/09/11 10:34:53;;;;;;;13.65;9.20;;;19.50;91.00;;;;;;5012414;28;20635;-82
2021/09/11 10:37:38;;;;;;;13.35;9.60;;;19.50;90.80;;;;;;4980859;28;20242;-81
2021/09/11 10:40:22;;;;;;;14.68;9.65;;;19.50;90.80;;;;;;4993883;28;20195;-80
2021/09/11 10:43:09;;;;;;;12.40;8.95;;;19.50;90.90;;;;;;4979204;28;20279;-84
2021/09/11 10:45:42;;;;;;;14.25;8.88;;;19.50;91.40;;;;;;4980107;28;20577;-84
2021/09/11 10:48:44;;;;;;;13.52;9.02;;;19.50;90.90;;;;;;4986666;28;20725;-80
2021/09/11 10:51:17;;;;;;;12.77;8.93;;;19.50;90.80;;;;;;5035314;28;20154;-81
2021/09/11 10:54:00;;;;;;;12.23;8.77;;;19.50;90.70;;;;;;5035696;28;20273;-79
2021/09/11 10:56:27;;;;;;;12.95;9.50;;;19.60;90.80;;;;;;5022511;28;20275;-81
2021/09/11 10:59:23;;;;;;;14.15;9.27;;;19.60;90.60;;;;;;5010756;28;20580;-80
2021/09/11 11:02:18;;;;;;;13.15;9.13;;;19.60;90.40;;;;;;5160657;23;20236;-83
2021/09/11 11:04:54;;;;;;;14.10;9.35;;;19.50;90.70;;;;;;5046303;28;20190;-82
2021/09/11 11:07:29;;;;;;;12.63;8.85;;;19.50;90.70;;;;;;5029011;28;20154;-82
2021/09/11 11:09:58;;;;;;;12.85;8.77;;;19.60;90.80;;;;;;5012683;28;20604;-82
2021/09/11 11:12:30;;;;;;;13.27;9.15;;;19.60;90.70;;;;;;5028659;28;20230;-83
2021/09/11 11:15:00;;;;;;;12.65;9.13;;;19.60;90.70;;;;;;5012186;28;20206;-82
2021/09/11 11:17:26;;;;;;;13.45;9.60;;;19.70;90.90;;;;;;5029286;28;20155;-82
2021/09/11 11:20:02;;;;;;;12.65;9.35;;;19.60;90.90;;;;;;5011994;28;20166;-82
2021/09/11 11:22:41;;;;;;;14.60;9.48;;;19.50;90.80;;;;;;5012943;28;20201;-82
2021/09/11 11:25:19;;;;;;;13.82;9.40;;;19.60;90.80;;;;;;5030021;28;20173;-82
2021/09/11 11:27:47;;;;;;;14.18;9.50;;;19.60;90.90;;;;;;5014159;28;20225;-82
2021/09/11 11:30:21;;;;;;;13.13;9.20;;;19.50;90.70;;;;;;5016425;28;20171;-83
2021/09/11 11:32:47;;;;;;;14.45;9.57;;;19.60;90.70;;;;;;5033005;28;20154;-83
2021/09/11 11:35:20;;;;;;;13.65;9.82;;;19.60;90.70;;;;;;5032900;28;20151;-83
2021/09/11 11:37:49;;;;;;;12.65;9.05;;;19.50;90.70;;;;;;5032227;28;20155;-83
2021/09/11 11:40:20;;;;;;;15.90;10.00;;;19.60;90.70;;;;;;5032427;28;20174;-82
2021/09/11 11:42:47;;;;;;;13.70;9.90;;;19.60;90.70;;;;;;5031681;28;20694;-82
2021/09/11 11:45:23;;;;;;;13.27;9.65;;;19.50;90.70;;;;;;5016350;28;20174;-83
2021/09/11 11:48:02;;;;;;;14.32;9.65;;;19.60;90.70;;;;;;5033753;28;20162;-83
2021/09/11 11:50:41;;;;;;;14.63;10.10;;;19.50;90.70;;;;;;5015657;28;20587;-83
2021/09/11 11:53:24;;;;;;;13.20;8.95;;;19.60;90.60;;;;;;5017081;28;20178;-82
2021/09/11 11:55:59;;;;;;;13.65;9.65;;;19.60;90.70;;;;;;5032998;28;20241;-82
2021/09/11 11:58:27;;;;;;;12.68;8.75;;;19.60;90.60;;;;;;5016012;28;20174;-82
2021/09/11 12:01:01;;;;;;;12.55;8.65;;;19.60;90.60;;;;;;5015612;28;20190;-82
2021/09/11 12:03:42;;;;;;;12.48;8.90;;;19.60;90.60;;;;;;5015551;28;20226;-83
2021/09/11 12:06:36;;;;;;;13.27;9.70;;;19.60;90.60;;;;;;5017459;28;20200;-83
2021/09/11 12:09:02;;;;;;;13.38;9.40;;;19.60;90.60;;;;;;5033536;28;20532;-83
2021/09/11 12:11:46;;;;;;;14.07;9.63;;;19.60;90.50;;;;;;5015669;28;20258;-83
2021/09/11 12:14:15;;;;;;;12.82;9.35;;;19.60;90.50;;;;;;5015749;28;20611;-82
2021/09/11 12:17:04;;;;;;;12.50;9.07;;;19.60;90.60;;;;;;5031803;28;20155;-83
2021/09/11 12:19:33;;;;;;;14.27;9.30;;;19.60;90.50;;;;;;5034121;28;20170;-82
2021/09/11 12:21:59;;;;;;;14.50;9.32;;;19.60;90.30;;;;;;5015072;28;20167;-82
2021/09/11 12:24:28;;;;;;;13.90;9.82;;;19.70;90.50;;;;;;5015337;28;20174;-83
2021/09/11 12:27:12;;;;;;;13.18;8.95;;;19.70;90.40;;;;;;5031834;28;20158;-82
2021/09/11 12:29:42;;;;;;;13.48;9.60;;;19.60;90.40;;;;;;5014810;28;20174;-82
2021/09/11 12:32:07;;;;;;;14.05;9.65;;;19.70;90.30;;;;;;5031136;28;20159;-82
2021/09/11 12:34:43;;;;;;;12.02;8.73;;;19.70;90.30;;;;;;5032055;28;20174;-83
2021/09/11 12:37:09;;;;;;;11.70;9.20;;;19.70;90.30;;;;;;5014570;28;20167;-83
2021/09/11 12:39:37;;;;;;;14.10;9.45;;;19.70;90.20;;;;;;5030068;28;20155;-82
2021/09/11 12:42:10;;;;;;;12.52;8.95;;;19.70;90.20;;;;;;5030835;28;20143;-83
2021/09/11 12:44:36;;;;;;;14.00;9.75;;;19.70;90.20;;;;;;5031427;28;20167;-83
2021/09/11 12:47:04;;;;;;;14.65;9.85;;;19.70;90.20;;;;;;5014945;28;20185;-82